createdAt,value
2016-09-23T00:00:45.335Z,99.99
2016-09-23T00:01:45.350Z,99.99
2016-09-23T00:02:45.351Z,99.99
2016-09-23T00:03:45.335Z,99.99
2016-09-23T00:04:45.335Z,99.99
2016-09-23T00:05:45.369Z,99.99
2016-09-23T00:06:45.360Z,99.99
2016-09-23T00:07:45.414Z,99.99
2016-09-23T00:08:45.348Z,99.99
2016-09-23T00:09:45.347Z,99.99
2016-09-23T00:10:45.344Z,99.99
2016-09-23T00:11:45.349Z,99.99
2016-09-23T00:12:45.386Z,99.99
2016-09-23T00:13:45.372Z,99.99
2016-09-23T00:14:45.357Z,99.99
2016-09-23T00:15:45.357Z,99.99
2016-09-23T00:16:45.370Z,99.99
2016-09-23T00:17:45.391Z,99.99
2016-09-23T00:18:45.365Z,99.99
2016-09-23T00:19:45.580Z,99.99
2016-09-23T00:20:45.351Z,99.99
2016-09-23T00:21:45.367Z,99.99
2016-09-23T00:22:45.375Z,99.99
2016-09-23T00:23:45.363Z,99.99
2016-09-23T00:24:45.373Z,99.99
2016-09-23T00:25:45.379Z,99.99
2016-09-23T00:26:45.380Z,99.99
2016-09-23T00:27:45.363Z,99.99
2016-09-23T00:28:45.371Z,99.99
2016-09-23T00:29:45.369Z,99.99
2016-09-23T00:30:45.383Z,99.99
2016-09-23T00:31:45.361Z,99.99
2016-09-23T00:32:45.366Z,99.99
2016-09-23T00:33:45.375Z,99.99
2016-09-23T00:34:45.364Z,99.99
2016-09-23T00:35:45.406Z,99.99
2016-09-23T00:36:45.378Z,99.99
2016-09-23T00:37:45.372Z,99.99
2016-09-23T00:38:45.392Z,99.99
2016-09-23T00:39:45.455Z,99.99
2016-09-23T00:40:45.390Z,99.99
2016-09-23T00:41:45.385Z,99.99
2016-09-23T00:42:45.384Z,99.99
2016-09-23T00:43:45.375Z,99.99
2016-09-23T00:44:45.427Z,99.99
2016-09-23T00:45:45.386Z,99.99
2016-09-23T00:46:45.385Z,99.99
2016-09-23T00:47:45.382Z,99.99
2016-09-23T00:48:45.397Z,99.99
2016-09-23T00:49:45.395Z,99.99
2016-09-23T00:50:45.389Z,99.99
2016-09-23T00:51:45.413Z,99.99
2016-09-23T00:52:45.398Z,99.99
2016-09-23T00:53:45.405Z,99.99
2016-09-23T00:54:45.401Z,99.99
2016-09-23T00:55:45.401Z,99.99
2016-09-23T00:56:45.609Z,99.99
2016-09-23T00:57:45.404Z,99.99
2016-09-23T00:58:45.446Z,99.99
2016-09-23T00:59:45.393Z,99.99
2016-09-23T01:00:45.417Z,99.99
2016-09-23T01:01:45.435Z,99.99
2016-09-23T01:02:45.394Z,99.99
2016-09-23T01:03:45.439Z,99.99
2016-09-23T01:04:45.426Z,99.99
2016-09-23T01:05:45.406Z,99.99
2016-09-23T01:06:45.422Z,99.99
2016-09-23T01:07:45.401Z,99.99
2016-09-23T01:08:45.413Z,99.99
2016-09-23T01:09:45.404Z,99.99
2016-09-23T01:10:45.391Z,99.99
2016-09-23T01:11:45.387Z,99.99
2016-09-23T01:12:45.388Z,99.99
2016-09-23T01:13:45.417Z,99.99
2016-09-23T01:14:45.397Z,99.99
2016-09-23T01:15:45.429Z,99.99
2016-09-23T01:16:45.402Z,99.99
2016-09-23T01:17:45.411Z,99.99
2016-09-23T01:18:45.442Z,99.99
2016-09-23T01:19:45.402Z,99.99
2016-09-23T01:20:45.409Z,99.99
2016-09-23T01:21:45.403Z,99.99
2016-09-23T01:22:45.441Z,99.99
2016-09-23T01:23:45.414Z,99.99
2016-09-23T01:24:45.433Z,99.99
2016-09-23T01:25:45.419Z,99.99
2016-09-23T01:26:45.417Z,99.99
2016-09-23T01:27:45.415Z,99.99
2016-09-23T01:28:45.464Z,99.99
2016-09-23T01:29:45.420Z,99.99
2016-09-23T01:30:45.415Z,99.99
2016-09-23T01:31:45.413Z,99.99
2016-09-23T01:32:45.426Z,99.99
2016-09-23T01:33:45.430Z,99.99
2016-09-23T01:34:45.433Z,99.99
2016-09-23T01:35:45.408Z,99.99
2016-09-23T01:36:45.420Z,99.99
2016-09-23T01:37:45.433Z,99.99
2016-09-23T01:38:45.418Z,99.99
2016-09-23T01:39:45.442Z,99.99
2016-09-23T01:40:45.429Z,99.99
2016-09-23T01:41:45.420Z,99.99
2016-09-23T01:42:45.435Z,99.99
2016-09-23T01:43:45.417Z,99.99
2016-09-23T01:44:45.481Z,99.99
2016-09-23T01:45:45.431Z,99.99
2016-09-23T01:46:45.416Z,99.99
2016-09-23T01:47:45.430Z,99.99
2016-09-23T01:48:45.420Z,99.99
2016-09-23T01:49:45.436Z,99.99
2016-09-23T01:50:45.445Z,99.99
2016-09-23T01:51:45.419Z,99.99
2016-09-23T01:52:45.433Z,99.99
2016-09-23T01:53:45.425Z,99.99
2016-09-23T01:54:45.435Z,99.99
2016-09-23T01:55:45.424Z,99.99
2016-09-23T01:56:45.428Z,99.99
2016-09-23T01:57:45.439Z,99.99
2016-09-23T01:58:45.429Z,99.99
2016-09-23T01:59:45.452Z,99.99
2016-09-23T02:00:45.429Z,99.99
2016-09-23T02:01:45.446Z,99.99
2016-09-23T02:02:45.440Z,99.99
2016-09-23T02:03:45.435Z,99.99
2016-09-23T02:04:45.538Z,99.99
2016-09-23T02:05:45.448Z,99.99
2016-09-23T02:06:45.452Z,99.99
2016-09-23T02:07:45.442Z,99.99
2016-09-23T02:08:45.451Z,99.99
2016-09-23T02:09:45.461Z,99.99
2016-09-23T02:10:45.451Z,99.99
2016-09-23T02:11:45.445Z,99.99
2016-09-23T02:12:45.436Z,99.99
2016-09-23T02:13:45.458Z,99.99
2016-09-23T02:14:45.456Z,99.99
2016-09-23T02:15:45.474Z,99.99
2016-09-23T02:16:45.448Z,99.99
2016-09-23T02:17:45.483Z,99.99
2016-09-23T02:18:45.447Z,99.99
2016-09-23T02:19:45.483Z,99.99
2016-09-23T02:20:45.445Z,99.99
2016-09-23T02:21:45.455Z,99.99
2016-09-23T02:22:45.460Z,99.99
2016-09-23T02:23:45.452Z,99.99
2016-09-23T02:24:45.487Z,99.99
2016-09-23T02:25:45.449Z,99.99
2016-09-23T02:26:45.454Z,99.99
2016-09-23T02:27:45.459Z,99.99
2016-09-23T02:28:45.457Z,99.99
2016-09-23T02:29:45.479Z,99.99
2016-09-23T02:30:45.468Z,99.99
2016-09-23T02:31:45.453Z,99.99
2016-09-23T02:32:45.450Z,99.99
2016-09-23T02:33:45.467Z,99.99
2016-09-23T02:34:45.508Z,99.99
2016-09-23T02:35:45.482Z,99.99
2016-09-23T02:36:45.479Z,99.99
2016-09-23T02:37:45.476Z,99.99
2016-09-23T02:38:45.486Z,99.99
2016-09-23T02:39:45.486Z,99.99
2016-09-23T02:40:45.497Z,99.99
2016-09-23T02:41:45.488Z,99.99
2016-09-23T02:42:45.480Z,99.99
2016-09-23T02:43:45.478Z,99.99
2016-09-23T02:44:45.505Z,99.99
2016-09-23T02:45:45.487Z,99.99
2016-09-23T02:46:45.487Z,99.99
2016-09-23T02:47:45.482Z,99.99
2016-09-23T02:48:45.491Z,99.99
2016-09-23T02:49:45.497Z,99.99
2016-09-23T02:50:45.522Z,99.99
2016-09-23T02:51:45.479Z,99.99
2016-09-23T02:52:45.476Z,99.99
2016-09-23T02:53:45.540Z,99.99
2016-09-23T02:54:45.499Z,99.99
2016-09-23T02:55:45.563Z,99.99
2016-09-23T02:56:45.472Z,99.99
2016-09-23T02:57:45.506Z,99.99
2016-09-23T02:58:45.484Z,99.99
2016-09-23T02:59:45.483Z,99.99
2016-09-23T03:00:45.493Z,99.99
2016-09-23T03:01:45.480Z,99.99
2016-09-23T03:02:45.493Z,99.99
2016-09-23T03:03:45.493Z,99.99
2016-09-23T03:04:45.482Z,99.99
2016-09-23T03:05:45.531Z,99.99
2016-09-23T03:06:45.502Z,99.99
2016-09-23T03:07:45.489Z,99.99
2016-09-23T03:08:45.508Z,99.99
2016-09-23T03:09:45.490Z,99.99
2016-09-23T03:10:45.497Z,99.99
2016-09-23T03:11:45.510Z,99.99
2016-09-23T03:12:45.505Z,99.99
2016-09-23T03:13:45.486Z,99.99
2016-09-23T03:14:45.488Z,99.99
2016-09-23T03:15:45.521Z,99.99
2016-09-23T03:16:45.508Z,99.99
2016-09-23T03:17:45.501Z,99.99
2016-09-23T03:18:45.513Z,99.99
2016-09-23T03:19:45.491Z,99.99
2016-09-23T03:20:45.513Z,99.99
2016-09-23T03:21:45.510Z,99.99
2016-09-23T03:22:45.516Z,99.99
2016-09-23T03:23:45.524Z,99.99
2016-09-23T03:24:45.528Z,99.99
2016-09-23T03:25:45.497Z,99.99
2016-09-23T03:26:45.513Z,99.99
2016-09-23T03:27:45.500Z,99.99
2016-09-23T03:28:45.506Z,99.99
2016-09-23T03:29:45.512Z,99.99
2016-09-23T03:30:45.503Z,99.99
2016-09-23T03:31:45.509Z,99.99
2016-09-23T03:32:45.547Z,99.99
2016-09-23T03:33:45.505Z,99.99
2016-09-23T03:34:45.511Z,99.99
2016-09-23T03:35:45.508Z,99.99
2016-09-23T03:36:45.532Z,99.99
2016-09-23T03:37:45.521Z,99.99
2016-09-23T03:38:45.509Z,99.99
2016-09-23T03:39:45.531Z,99.99
2016-09-23T03:40:45.525Z,99.99
2016-09-23T03:41:45.504Z,99.99
2016-09-23T03:42:45.527Z,99.99
2016-09-23T03:43:45.515Z,99.99
2016-09-23T03:44:45.524Z,99.99
2016-09-23T03:45:45.532Z,99.99
2016-09-23T03:46:45.525Z,99.99
2016-09-23T03:47:45.554Z,99.99
2016-09-23T03:48:45.531Z,99.99
2016-09-23T03:49:45.528Z,99.99
2016-09-23T03:50:45.529Z,99.99
2016-09-23T03:51:45.523Z,99.99
2016-09-23T03:52:45.550Z,99.99
2016-09-23T03:53:45.541Z,99.99
2016-09-23T03:54:45.539Z,99.99
2016-09-23T03:55:45.516Z,99.99
2016-09-23T03:56:45.511Z,99.99
2016-09-23T03:57:45.538Z,99.99
2016-09-23T03:58:45.531Z,99.99
2016-09-23T03:59:45.545Z,99.99
2016-09-23T04:00:45.521Z,99.99
2016-09-23T04:01:45.526Z,99.99
2016-09-23T04:02:45.553Z,99.99
2016-09-23T04:03:45.548Z,99.99
2016-09-23T04:04:45.562Z,99.99
2016-09-23T04:05:45.555Z,99.99
2016-09-23T04:06:45.542Z,99.99
2016-09-23T04:07:45.567Z,99.99
2016-09-23T04:08:45.540Z,99.99
2016-09-23T04:09:45.570Z,99.99
2016-09-23T04:10:45.547Z,99.99
2016-09-23T04:11:45.547Z,99.99
2016-09-23T04:12:45.571Z,99.99
2016-09-23T04:13:45.569Z,99.99
2016-09-23T04:14:45.560Z,99.99
2016-09-23T04:15:45.537Z,99.99
2016-09-23T04:16:45.550Z,99.99
2016-09-23T04:17:45.564Z,99.99
2016-09-23T04:18:45.555Z,99.99
2016-09-23T04:19:45.549Z,99.99
2016-09-23T04:20:45.551Z,99.99
2016-09-23T04:21:45.558Z,99.99
2016-09-23T04:22:45.555Z,99.99
2016-09-23T04:23:45.560Z,99.99
2016-09-23T04:24:45.547Z,99.99
2016-09-23T04:25:45.548Z,99.99
2016-09-23T04:26:45.553Z,99.99
2016-09-23T04:27:45.600Z,99.99
2016-09-23T04:28:45.605Z,99.99
2016-09-23T04:29:45.634Z,99.99
2016-09-23T04:30:45.624Z,99.99
2016-09-23T04:31:45.627Z,99.99
2016-09-23T04:32:45.618Z,99.99
2016-09-23T04:33:45.640Z,99.99
2016-09-23T04:34:45.619Z,99.99
2016-09-23T04:35:45.628Z,99.99
2016-09-23T04:36:45.621Z,99.99
2016-09-23T04:37:45.621Z,99.99
2016-09-23T04:38:45.678Z,99.99
2016-09-23T04:39:45.589Z,99.99
2016-09-23T04:40:45.601Z,99.99
2016-09-23T04:41:45.598Z,99.99
2016-09-23T04:42:45.611Z,99.99
2016-09-23T04:43:45.661Z,99.99
2016-09-23T04:44:45.687Z,99.99
2016-09-23T04:45:45.612Z,99.99
2016-09-23T04:46:45.670Z,99.99
2016-09-23T04:47:45.675Z,99.99
2016-09-23T04:48:45.640Z,99.99
2016-09-23T04:49:45.621Z,99.99
2016-09-23T04:50:45.628Z,99.99
2016-09-23T04:51:45.629Z,99.99
2016-09-23T04:52:45.644Z,99.99
2016-09-23T04:53:45.628Z,99.99
2016-09-23T04:54:45.601Z,99.99
2016-09-23T04:55:45.644Z,99.99
2016-09-23T04:56:45.676Z,99.99
2016-09-23T04:57:45.644Z,99.99
2016-09-23T04:58:45.663Z,99.99
2016-09-23T04:59:45.585Z,99.99
2016-09-23T05:00:45.673Z,99.99
2016-09-23T05:01:45.693Z,99.99
2016-09-23T05:02:45.635Z,99.99
2016-09-23T05:03:45.685Z,99.99
2016-09-23T05:04:45.675Z,99.99
2016-09-23T05:05:45.636Z,99.99
2016-09-23T05:06:45.637Z,99.99
2016-09-23T05:07:45.647Z,99.99
2016-09-23T05:08:45.659Z,99.99
2016-09-23T05:09:45.696Z,99.99
2016-09-23T05:10:45.689Z,99.99
2016-09-23T05:11:45.652Z,99.99
2016-09-23T05:12:45.665Z,99.99
2016-09-23T05:13:45.655Z,99.99
2016-09-23T05:14:45.675Z,99.99
2016-09-23T05:15:45.635Z,99.99
2016-09-23T05:16:45.646Z,99.99
2016-09-23T05:17:45.681Z,99.99
2016-09-23T05:18:46.414Z,99.99
2016-09-23T05:19:45.682Z,99.99
2016-09-23T05:20:45.708Z,99.99
2016-09-23T05:21:45.637Z,99.99
2016-09-23T05:22:45.656Z,99.99
2016-09-23T05:23:45.714Z,99.99
2016-09-23T05:24:45.655Z,99.99
2016-09-23T05:25:45.684Z,99.99
2016-09-23T05:26:45.653Z,99.99
2016-09-23T05:27:45.648Z,99.99
2016-09-23T05:28:45.685Z,99.99
2016-09-23T05:29:45.656Z,99.99
2016-09-23T05:30:45.631Z,99.99
2016-09-23T05:31:45.686Z,99.99
2016-09-23T05:32:45.638Z,99.99
2016-09-23T05:33:45.660Z,99.99
2016-09-23T05:34:45.620Z,99.99
2016-09-23T05:35:45.625Z,99.99
2016-09-23T05:36:45.652Z,99.99
2016-09-23T05:37:45.665Z,99.99
2016-09-23T05:38:46.567Z,99.99
2016-09-23T05:39:45.627Z,99.99
2016-09-23T05:40:45.628Z,99.99
2016-09-23T05:41:45.620Z,99.99
2016-09-23T05:42:45.637Z,99.99
2016-09-23T05:43:45.637Z,99.99
2016-09-23T05:44:45.628Z,99.99
2016-09-23T05:45:45.631Z,99.99
2016-09-23T05:46:45.622Z,99.99
2016-09-23T05:47:45.644Z,99.99
2016-09-23T05:48:45.651Z,99.99
2016-09-23T05:49:45.634Z,99.99
2016-09-23T05:50:45.642Z,99.99
2016-09-23T05:51:45.627Z,99.99
2016-09-23T05:52:45.635Z,99.99
2016-09-23T05:53:45.621Z,99.99
2016-09-23T05:54:45.613Z,99.99
2016-09-23T05:55:45.625Z,99.99
2016-09-23T05:56:45.628Z,99.99
2016-09-23T05:57:45.637Z,99.99
2016-09-23T05:58:45.642Z,99.99
2016-09-23T05:59:45.631Z,99.99
2016-09-23T06:00:45.646Z,99.99
2016-09-23T06:01:45.633Z,99.99
2016-09-23T06:02:45.670Z,99.99
2016-09-23T06:03:45.717Z,99.99
2016-09-23T06:04:45.654Z,99.99
2016-09-23T06:05:45.647Z,99.99
2016-09-23T06:06:45.647Z,99.99
2016-09-23T06:07:45.647Z,99.99
2016-09-23T06:08:45.659Z,99.99
2016-09-23T06:09:45.657Z,99.99
2016-09-23T06:10:45.639Z,99.99
2016-09-23T06:11:45.653Z,99.99
2016-09-23T06:12:45.671Z,99.99
2016-09-23T06:13:45.674Z,99.99
2016-09-23T06:14:45.661Z,99.99
2016-09-23T06:15:45.648Z,99.99
2016-09-23T06:16:45.642Z,99.99
2016-09-23T06:17:45.629Z,99.99
2016-09-23T06:18:45.652Z,99.99
2016-09-23T06:19:45.657Z,99.99
2016-09-23T06:20:45.650Z,99.99
2016-09-23T06:21:45.641Z,99.99
2016-09-23T06:22:45.663Z,99.99
2016-09-23T06:23:45.652Z,99.99
2016-09-23T06:24:45.676Z,99.99
2016-09-23T06:25:45.657Z,99.99
2016-09-23T06:26:45.660Z,99.99
2016-09-23T06:27:45.653Z,99.99
2016-09-23T06:28:45.658Z,99.99
2016-09-23T06:29:45.685Z,99.99
2016-09-23T06:30:45.658Z,99.99
2016-09-23T06:31:45.648Z,99.99
2016-09-23T06:32:45.688Z,99.99
2016-09-23T06:33:45.665Z,99.99
2016-09-23T06:34:45.670Z,99.99
2016-09-23T06:35:45.654Z,99.99
2016-09-23T06:36:45.666Z,99.99
2016-09-23T06:37:45.678Z,99.99
2016-09-23T06:38:45.671Z,99.99
2016-09-23T06:39:45.684Z,99.99
2016-09-23T06:40:45.703Z,99.99
2016-09-23T06:41:45.706Z,99.99
2016-09-23T06:42:45.699Z,99.99
2016-09-23T06:43:45.669Z,99.99
2016-09-23T06:44:45.697Z,99.99
2016-09-23T06:45:45.675Z,99.99
2016-09-23T06:46:45.680Z,99.99
2016-09-23T06:47:45.690Z,99.99
2016-09-23T06:48:45.671Z,99.99
2016-09-23T06:49:45.679Z,99.99
2016-09-23T06:50:45.720Z,99.99
2016-09-23T06:51:45.699Z,99.99
2016-09-23T06:52:45.690Z,99.99
2016-09-23T06:53:45.722Z,99.99
2016-09-23T06:54:45.756Z,99.99
2016-09-23T06:55:46.522Z,99.99
2016-09-23T06:56:45.707Z,99.99
2016-09-23T06:57:45.713Z,99.99
2016-09-23T06:58:45.684Z,99.99
2016-09-23T06:59:45.713Z,99.99
2016-09-23T07:00:45.710Z,99.99
2016-09-23T07:01:45.675Z,99.99
2016-09-23T07:02:45.701Z,99.99
2016-09-23T07:03:46.606Z,99.99
2016-09-23T07:04:45.716Z,99.99
2016-09-23T07:05:45.723Z,99.99
2016-09-23T07:06:45.716Z,99.99
2016-09-23T07:07:45.697Z,99.99
2016-09-23T07:08:45.708Z,99.99
2016-09-23T07:09:45.713Z,99.99
2016-09-23T07:10:45.688Z,99.99
2016-09-23T07:11:45.697Z,99.99
2016-09-23T07:12:45.706Z,99.99
2016-09-23T07:13:45.708Z,99.99
2016-09-23T07:14:45.695Z,99.99
2016-09-23T07:15:45.689Z,99.99
2016-09-23T07:16:45.729Z,99.99
2016-09-23T07:17:45.690Z,99.99
2016-09-23T07:18:45.731Z,99.99
2016-09-23T07:19:45.738Z,99.99
2016-09-23T07:20:45.704Z,99.99
2016-09-23T07:21:45.726Z,99.99
2016-09-23T07:22:45.718Z,99.99
2016-09-23T07:23:45.754Z,99.99
2016-09-23T07:24:45.732Z,99.99
2016-09-23T07:25:45.707Z,99.99
2016-09-23T07:26:45.728Z,99.99
2016-09-23T07:27:45.705Z,99.99
2016-09-23T07:28:50.730Z,99.99
2016-09-23T07:29:51.007Z,99.99
2016-09-23T07:30:50.390Z,99.99
2016-09-23T07:31:45.743Z,99.99
2016-09-23T07:32:45.726Z,99.99
2016-09-23T07:33:50.509Z,99.99
2016-09-23T07:34:50.618Z,99.99
2016-09-23T07:35:45.715Z,99.99
2016-09-23T07:36:45.738Z,99.99
2016-09-23T07:37:45.730Z,99.99
2016-09-23T07:38:45.752Z,99.99
2016-09-23T07:39:45.732Z,99.99
2016-09-23T07:40:45.733Z,99.99
2016-09-23T07:41:45.752Z,99.99
2016-09-23T07:42:45.715Z,99.99
2016-09-23T07:43:45.723Z,99.99
2016-09-23T07:44:45.727Z,99.99
2016-09-23T07:45:45.723Z,99.99
2016-09-23T07:46:45.756Z,99.99
2016-09-23T07:47:45.744Z,99.99
2016-09-23T07:48:45.884Z,99.99
2016-09-23T07:49:45.762Z,99.99
2016-09-23T07:50:51.111Z,99.99
2016-09-23T07:51:50.345Z,99.99
2016-09-23T07:52:50.577Z,99.99
2016-09-23T07:53:50.401Z,99.99
2016-09-23T07:54:50.271Z,99.99
2016-09-23T07:55:50.330Z,99.99
2016-09-23T07:56:51.197Z,99.99
2016-09-23T07:57:45.762Z,99.99
2016-09-23T07:58:45.750Z,99.99
2016-09-23T08:00:22.605Z,99.99
2016-09-23T08:00:45.769Z,99.99
2016-09-23T08:01:45.833Z,99.99
2016-09-23T08:02:45.782Z,99.99
2016-09-23T08:03:45.754Z,99.99
2016-09-23T08:04:45.761Z,99.99
2016-09-23T08:05:46.012Z,99.99
2016-09-23T08:06:45.743Z,99.99
2016-09-23T08:07:45.765Z,99.99
2016-09-23T08:08:45.763Z,99.99
2016-09-23T08:09:45.732Z,99.99
2016-09-23T08:10:45.742Z,99.99
2016-09-23T08:11:45.764Z,99.99
2016-09-23T08:12:45.782Z,99.49
2016-09-23T08:13:45.770Z,98.38
2016-09-23T08:14:45.753Z,98.1
2016-09-23T08:15:45.760Z,98.67
2016-09-23T08:16:45.751Z,97.47
2016-09-23T08:17:45.778Z,95.84
2016-09-23T08:18:45.749Z,95.84
2016-09-23T08:19:45.777Z,95.17
2016-09-23T08:20:45.753Z,94.78
2016-09-23T08:21:45.769Z,94.54
2016-09-23T08:22:45.819Z,93.96
2016-09-23T08:23:45.794Z,93.77
2016-09-23T08:24:45.767Z,92.38
2016-09-23T08:25:46.081Z,92.47
2016-09-23T08:26:45.806Z,91.8
2016-09-23T08:27:45.822Z,91.61
2016-09-23T08:28:45.845Z,91.03
2016-09-23T08:29:45.817Z,90.45
2016-09-23T08:30:46.382Z,91.13
2016-09-23T08:31:45.810Z,91.9
2016-09-23T08:32:45.851Z,90.59
2016-09-23T08:33:45.849Z,90.21
2016-09-23T08:34:45.772Z,90.41
2016-09-23T08:35:45.845Z,90.36
2016-09-23T08:36:45.823Z,90.31
2016-09-23T08:37:45.802Z,91.03
2016-09-23T08:38:46.103Z,90.79
2016-09-23T08:39:45.789Z,91.71
2016-09-23T08:40:45.777Z,91.13
2016-09-23T08:41:45.825Z,91.71
2016-09-23T08:42:45.833Z,91.52
2016-09-23T08:43:45.788Z,92.47
2016-09-23T08:44:45.823Z,92.76
2016-09-23T08:45:45.785Z,93.05
2016-09-23T08:46:45.846Z,93.73
2016-09-23T08:47:45.841Z,93.15
2016-09-23T08:48:45.835Z,93.53
2016-09-23T08:49:45.815Z,93.49
2016-09-23T08:50:45.832Z,93.24
2016-09-23T08:51:45.871Z,93.73
2016-09-23T08:52:45.791Z,94.01
2016-09-23T08:53:45.828Z,94.59
2016-09-23T08:54:45.812Z,94.26
2016-09-23T08:55:45.804Z,94.45
2016-09-23T08:56:45.789Z,95.55
2016-09-23T08:57:45.795Z,95.26
2016-09-23T08:58:45.817Z,95.6
2016-09-23T08:59:45.810Z,95.03
2016-09-23T09:00:45.816Z,95.4
2016-09-23T09:01:46.802Z,95.36
2016-09-23T09:02:45.813Z,95.17
2016-09-23T09:03:45.820Z,95.36
2016-09-23T09:04:45.822Z,95.75
2016-09-23T09:05:45.806Z,95.17
2016-09-23T09:06:45.814Z,95.6
2016-09-23T09:07:45.806Z,95.84
2016-09-23T09:08:45.839Z,95.75
2016-09-23T09:09:45.852Z,95.94
2016-09-23T09:10:45.834Z,96.13
2016-09-23T09:11:45.825Z,95.94
2016-09-23T09:12:45.788Z,95.75
2016-09-23T09:13:45.857Z,95.26
2016-09-23T09:14:45.819Z,94.88
2016-09-23T09:15:45.794Z,95.55
2016-09-23T09:16:45.814Z,95.17
2016-09-23T09:17:45.822Z,94.3
2016-09-23T09:18:45.859Z,94.21
2016-09-23T09:19:45.817Z,93.87
2016-09-23T09:20:45.828Z,94.01
2016-09-23T09:21:45.820Z,93.38
2016-09-23T09:22:45.813Z,92.52
2016-09-23T09:23:45.835Z,92.52
2016-09-23T09:24:45.812Z,92.61
2016-09-23T09:25:45.854Z,92.33
2016-09-23T09:26:45.830Z,92.08
2016-09-23T09:27:45.815Z,91.51
2016-09-23T09:28:45.874Z,90.83
2016-09-23T09:29:45.836Z,91.13
2016-09-23T09:30:45.833Z,89.78
2016-09-23T09:31:45.829Z,90.06
2016-09-23T09:32:45.847Z,90.01
2016-09-23T09:33:45.854Z,89.82
2016-09-23T09:34:45.839Z,88.95
2016-09-23T09:35:45.851Z,88.57
2016-09-23T09:36:45.836Z,87.9
2016-09-23T09:37:45.828Z,87.9
2016-09-23T09:38:45.851Z,87.22
2016-09-23T09:39:45.855Z,86.83
2016-09-23T09:40:45.839Z,86.3
2016-09-23T09:41:45.826Z,85.82
2016-09-23T09:42:45.855Z,85.43
2016-09-23T09:43:45.836Z,85.82
2016-09-23T09:44:45.873Z,85.77
2016-09-23T09:45:45.850Z,84.9
2016-09-23T09:46:45.845Z,84.7
2016-09-23T09:47:45.835Z,84.36
2016-09-23T09:48:45.855Z,84.55
2016-09-23T09:49:45.857Z,84.36
2016-09-23T09:50:45.858Z,84.17
2016-09-23T09:52:45.889Z,83.78
2016-09-23T09:53:45.945Z,83.11
2016-09-23T09:54:45.888Z,83.34
2016-09-23T09:55:45.843Z,83.25
2016-09-23T09:56:45.851Z,83.5
2016-09-23T09:57:45.931Z,83.4
2016-09-23T09:58:45.881Z,83.59
2016-09-23T09:59:45.920Z,83.4
2016-09-23T10:00:45.878Z,83.98
2016-09-23T10:01:45.858Z,83.59
2016-09-23T10:02:45.881Z,84.27
2016-09-23T10:03:45.895Z,84.27
2016-09-23T10:04:45.899Z,84.8
2016-09-23T10:05:45.884Z,85.38
2016-09-23T10:06:45.861Z,84.8
2016-09-23T10:07:45.917Z,85.57
2016-09-23T10:08:45.873Z,85.77
2016-09-23T10:09:45.899Z,86.82
2016-09-23T10:10:45.878Z,85.19
2016-09-23T10:11:45.878Z,85.57
2016-09-23T10:12:45.906Z,85.67
2016-09-23T10:13:45.877Z,84.9
2016-09-23T10:14:45.880Z,84.75
2016-09-23T10:15:45.874Z,85.42
2016-09-23T10:16:45.888Z,84.75
2016-09-23T10:17:45.910Z,85.33
2016-09-23T10:18:45.897Z,84.94
2016-09-23T10:19:45.942Z,84.75
2016-09-23T10:20:45.878Z,85.09
2016-09-23T10:21:45.899Z,85.57
2016-09-23T10:22:45.897Z,85.67
2016-09-23T10:23:45.890Z,84.99
2016-09-23T10:24:45.899Z,85.19
2016-09-23T10:25:45.916Z,85.09
2016-09-23T10:26:45.893Z,85.28
2016-09-23T10:27:45.894Z,85.28
2016-09-23T10:28:45.888Z,84.7
2016-09-23T10:29:45.872Z,84.55
2016-09-23T10:30:45.916Z,84.84
2016-09-23T10:31:45.901Z,84.94
2016-09-23T10:32:45.885Z,84.84
2016-09-23T10:33:45.893Z,85.13
2016-09-23T10:34:45.907Z,84.99
2016-09-23T10:35:45.916Z,85.19
2016-09-23T10:36:45.897Z,84.94
2016-09-23T10:37:45.892Z,85.33
2016-09-23T10:38:45.897Z,85.47
2016-09-23T10:39:45.908Z,85.47
2016-09-23T10:40:45.913Z,85.77
2016-09-23T10:41:45.964Z,85.86
2016-09-23T10:42:45.883Z,85.96
2016-09-23T10:43:45.902Z,86.35
2016-09-23T10:44:45.902Z,85.28
2016-09-23T10:45:45.948Z,86.15
2016-09-23T10:46:45.915Z,85.38
2016-09-23T10:47:45.906Z,85.57
2016-09-23T10:48:45.910Z,86.05
2016-09-23T10:49:45.929Z,84.99
2016-09-23T10:50:45.890Z,84.99
2016-09-23T10:51:45.955Z,84.8
2016-09-23T10:52:45.907Z,84.8
2016-09-23T10:53:45.932Z,85.47
2016-09-23T10:54:45.950Z,85.28
2016-09-23T10:55:45.928Z,85.67
2016-09-23T10:56:45.928Z,84.9
2016-09-23T10:57:45.912Z,85.19
2016-09-23T10:58:45.932Z,84.7
2016-09-23T10:59:45.931Z,85.09
2016-09-23T11:00:45.928Z,84.8
2016-09-23T11:01:45.925Z,83.55
2016-09-23T11:02:45.949Z,83.07
2016-09-23T11:03:45.928Z,84.7
2016-09-23T11:04:45.916Z,85.28
2016-09-23T11:05:45.931Z,85.28
2016-09-23T11:06:45.927Z,83.88
2016-09-23T11:07:45.950Z,83.01
2016-09-23T11:08:45.937Z,81.27
2016-09-23T11:09:45.924Z,80.6
2016-09-23T11:10:45.939Z,78.58
2016-09-23T11:11:45.940Z,77.36
2016-09-23T11:12:45.938Z,77.42
2016-09-23T11:13:46.003Z,77.84
2016-09-23T11:14:46.250Z,77.33
2016-09-23T11:15:46.103Z,77.13
2016-09-23T11:16:46.176Z,76.2
2016-09-23T11:17:45.956Z,76.2
2016-09-23T11:18:45.956Z,76.2
2016-09-23T11:19:45.982Z,76.55
2016-09-23T11:20:45.955Z,76.4
2016-09-23T11:21:45.947Z,75.82
2016-09-23T11:22:45.958Z,74.85
2016-09-23T11:23:45.975Z,74.85
2016-09-23T11:24:45.945Z,74.95
2016-09-23T11:25:46.017Z,75.62
2016-09-23T11:26:45.936Z,75.53
2016-09-23T11:27:45.975Z,75.47
2016-09-23T11:28:45.979Z,74.79
2016-09-23T11:29:45.957Z,74.99
2016-09-23T11:30:45.949Z,75.09
2016-09-23T11:31:45.967Z,75.76
2016-09-23T11:32:45.978Z,74.89
2016-09-23T11:33:45.983Z,74.12
2016-09-23T11:34:45.966Z,74.12
2016-09-23T11:35:45.962Z,74.41
2016-09-23T11:36:45.966Z,73.54
2016-09-23T11:37:45.985Z,74.41
2016-09-23T11:38:46.045Z,73.54
2016-09-23T11:39:45.990Z,73.99
2016-09-23T11:40:46.006Z,73.54
2016-09-23T11:41:46.021Z,73.93
2016-09-23T11:42:46.020Z,73.06
2016-09-23T11:43:46.026Z,73.83
2016-09-23T11:44:46.046Z,73.63
2016-09-23T11:45:46.010Z,74.51
2016-09-23T11:46:46.003Z,74.47
2016-09-23T11:47:46.001Z,74.37
2016-09-23T11:48:45.965Z,74.95
2016-09-23T11:49:45.975Z,74.18
2016-09-23T11:50:45.974Z,75.14
2016-09-23T11:51:45.971Z,75.53
2016-09-23T11:52:46.029Z,73.5
2016-09-23T11:53:45.986Z,73.41
2016-09-23T11:54:46.001Z,73.21
2016-09-23T11:55:45.987Z,73.41
2016-09-23T11:56:45.991Z,73.21
2016-09-23T11:57:46.037Z,73.6
2016-09-23T11:58:45.981Z,73.54
2016-09-23T11:59:45.979Z,72.48
2016-09-23T12:00:45.988Z,73.06
2016-09-23T12:01:45.975Z,74.02
2016-09-23T12:02:45.993Z,74.57
2016-09-23T12:03:45.989Z,74.69
2016-09-23T12:04:45.984Z,73.15
2016-09-23T12:05:45.970Z,72.96
2016-09-23T12:06:45.989Z,72.86
2016-09-23T12:07:46.012Z,72.77
2016-09-23T12:08:46.076Z,72.96
2016-09-23T12:09:46.040Z,72.38
2016-09-23T12:10:45.975Z,73.15
2016-09-23T12:11:46.000Z,74.89
2016-09-23T12:12:45.980Z,75.67
2016-09-23T12:13:46.024Z,75.27
2016-09-23T12:14:46.001Z,75.76
2016-09-23T12:15:46.003Z,75.47
2016-09-23T12:16:46.014Z,74.35
2016-09-23T12:17:45.994Z,73
2016-09-23T12:18:46.035Z,72.52
2016-09-23T12:19:46.015Z,72.52
2016-09-23T12:20:46.006Z,72.13
2016-09-23T12:21:46.025Z,72.42
2016-09-23T12:22:46.036Z,71.87
2016-09-23T12:23:46.073Z,71.78
2016-09-23T12:24:46.105Z,71.87
2016-09-23T12:25:46.069Z,73
2016-09-23T12:26:46.048Z,72.84
2016-09-23T12:27:46.036Z,72.64
2016-09-23T12:28:46.046Z,71.58
2016-09-23T12:29:45.994Z,72.36
2016-09-23T12:30:46.056Z,72.36
2016-09-23T12:31:46.087Z,71.48
2016-09-23T12:32:46.034Z,71.48
2016-09-23T12:33:46.029Z,70.72
2016-09-23T12:34:46.049Z,71
2016-09-23T12:35:46.024Z,70.72
2016-09-23T12:36:46.037Z,69.98
2016-09-23T12:37:46.020Z,69.43
2016-09-23T12:38:46.040Z,68.72
2016-09-23T12:39:46.016Z,68.95
2016-09-23T12:40:46.014Z,67.59
2016-09-23T12:41:46.038Z,68.37
2016-09-23T12:42:46.026Z,67.88
2016-09-23T12:43:46.049Z,67.88
2016-09-23T12:44:46.032Z,67.3
2016-09-23T12:45:46.051Z,67.08
2016-09-23T12:46:46.062Z,67.08
2016-09-23T12:47:46.051Z,67.94
2016-09-23T12:48:46.039Z,68.24
2016-09-23T12:49:46.016Z,68.04
2016-09-23T12:50:46.035Z,68.33
2016-09-23T12:51:46.055Z,68.72
2016-09-23T12:52:46.077Z,68.2
2016-09-23T12:53:46.097Z,68.33
2016-09-23T12:54:46.041Z,67.75
2016-09-23T12:55:46.028Z,67.36